Terminal Aerodrome Forecast
Issued by NWS Cleveland, OH

Home | Current Version | Previous Version | Text Only | Print | Product List | Glossary On
Versions: 1 2 3 4 5 6 7 8 9 10 11 12 13 14 15 16 17 18 19 20 21 22 23 24 25 26 27 28 29 30 31 32 33 34
000
FTUS41 KCLE 281700
TAFCLE
TAF
KCLE 281739Z 2818/2924 21008KT P6SM SCT035 BKN050
     FM290700 17010KT 6SM -SN BKN035 OVC100 PROB30 2909/2912 -FZDZ
      OVC025
     FM291400 19012G20KT P6SM OVC035
     FM291700 19014G22KT P6SM VCSH SCT025 OVC035=

USA.gov is the U.S. government's official web portal to all federal, state and local government web resources and services.